sensor_id;sensor_type;location;lat;lon;timestamp;pressure;altitude;pressure_sealevel;temperature;humidity
55460;BME280;41326;45.302;-122.946;2023-05-22T00:00:21;101705.61;;;18.30;56.19
55460;BME280;41326;45.302;-122.946;2023-05-22T00:02:50;101710.76;;;18.37;55.64
55460;BME280;41326;45.302;-122.946;2023-05-22T00:05:21;101710.90;;;18.24;56.19
55460;BME280;41326;45.302;-122.946;2023-05-22T00:07:51;101713.87;;;18.23;56.14
55460;BME280;41326;45.302;-122.946;2023-05-22T00:10:21;101716.90;;;18.30;55.52
55460;BME280;41326;45.302;-122.946;2023-05-22T00:12:52;101717.74;;;18.22;55.64
55460;BME280;41326;45.302;-122.946;2023-05-22T00:15:22;101715.92;;;18.23;55.26
55460;BME280;41326;45.302;-122.946;2023-05-22T00:17:52;101717.39;;;18.19;54.36
55460;BME280;41326;45.302;-122.946;2023-05-22T00:20:22;101717.38;;;18.22;54.72
55460;BME280;41326;45.302;-122.946;2023-05-22T00:22:52;101717.66;;;18.07;55.51
55460;BME280;41326;45.302;-122.946;2023-05-22T00:25:23;101713.94;;;18.13;55.20
55460;BME280;41326;45.302;-122.946;2023-05-22T00:27:55;101715.50;;;18.07;55.26
55460;BME280;41326;45.302;-122.946;2023-05-22T00:30:23;101717.37;;;18.05;55.27
55460;BME280;41326;45.302;-122.946;2023-05-22T00:32:53;101714.13;;;17.97;55.46
55460;BME280;41326;45.302;-122.946;2023-05-22T00:35:24;101715.63;;;17.96;55.45
55460;BME280;41326;45.302;-122.946;2023-05-22T00:37:54;101710.84;;;17.94;55.08
55460;BME280;41326;45.302;-122.946;2023-05-22T00:40:24;101707.48;;;17.98;55.00
55460;BME280;41326;45.302;-122.946;2023-05-22T00:42:55;101709.87;;;17.92;55.19
55460;BME280;41326;45.302;-122.946;2023-05-22T00:45:25;101709.72;;;17.92;55.75
55460;BME280;41326;45.302;-122.946;2023-05-22T00:47:56;101715.59;;;17.93;55.51
55460;BME280;41326;45.302;-122.946;2023-05-22T00:50:26;101712.09;;;17.90;55.29
55460;BME280;41326;45.302;-122.946;2023-05-22T00:52:57;101714.14;;;17.90;54.97
55460;BME280;41326;45.302;-122.946;2023-05-22T00:55:26;101714.48;;;17.90;54.80
55460;BME280;41326;45.302;-122.946;2023-05-22T00:57:56;101714.34;;;18.13;53.01
55460;BME280;41326;45.302;-122.946;2023-05-22T01:00:28;101712.43;;;18.10;53.44
55460;BME280;41326;45.302;-122.946;2023-05-22T01:02:57;101708.98;;;18.16;51.07
55460;BME280;41326;45.302;-122.946;2023-05-22T01:05:27;101707.03;;;18.22;51.51
55460;BME280;41326;45.302;-122.946;2023-05-22T01:07:58;101704.76;;;18.14;52.26
55460;BME280;41326;45.302;-122.946;2023-05-22T01:10:28;101706.34;;;18.07;52.84
55460;BME280;41326;45.302;-122.946;2023-05-22T01:13:03;101702.54;;;18.09;52.85
55460;BME280;41326;45.302;-122.946;2023-05-22T01:15:35;101700.54;;;17.88;53.98
55460;BME280;41326;45.302;-122.946;2023-05-22T01:18:09;101696.32;;;17.73;54.84
55460;BME280;41326;45.302;-122.946;2023-05-22T01:20:31;101704.05;;;17.75;54.51
55460;BME280;41326;45.302;-122.946;2023-05-22T01:28:10;101706.04;;;17.71;54.81
55460;BME280;41326;45.302;-122.946;2023-05-22T01:33:02;101705.26;;;17.73;54.57
55460;BME280;41326;45.302;-122.946;2023-05-22T01:35:32;101706.80;;;17.71;54.44
55460;BME280;41326;45.302;-122.946;2023-05-22T01:38:02;101707.11;;;17.71;53.94
55460;BME280;41326;45.302;-122.946;2023-05-22T01:40:33;101706.35;;;17.70;54.53
55460;BME280;41326;45.302;-122.946;2023-05-22T01:43:10;101709.38;;;17.70;55.13
55460;BME280;41326;45.302;-122.946;2023-05-22T01:45:40;101709.40;;;17.68;54.46
55460;BME280;41326;45.302;-122.946;2023-05-22T01:48:10;101710.67;;;17.69;54.18
55460;BME280;41326;45.302;-122.946;2023-05-22T01:50:40;101711.74;;;17.62;54.13
55460;BME280;41326;45.302;-122.946;2023-05-22T01:53:17;101713.48;;;17.58;54.30
55460;BME280;41326;45.302;-122.946;2023-05-22T01:55:45;101713.63;;;17.59;54.49
55460;BME280;41326;45.302;-122.946;2023-05-22T01:58:18;101716.24;;;17.53;55.11
55460;BME280;41326;45.302;-122.946;2023-05-22T02:00:42;101719.41;;;17.58;55.01
55460;BME280;41326;45.302;-122.946;2023-05-22T02:03:15;101721.52;;;17.59;55.47
55460;BME280;41326;45.302;-122.946;2023-05-22T02:05:43;101720.73;;;17.77;53.05
55460;BME280;41326;45.302;-122.946;2023-05-22T02:08:12;101715.73;;;17.64;55.46
55460;BME280;41326;45.302;-122.946;2023-05-22T02:10:42;101714.99;;;17.69;55.17
55460;BME280;41326;45.302;-122.946;2023-05-22T02:13:12;101717.58;;;17.74;55.11
55460;BME280;41326;45.302;-122.946;2023-05-22T02:15:44;101715.95;;;17.87;55.62
55460;BME280;41326;45.302;-122.946;2023-05-22T02:18:16;101721.96;;;17.96;55.91
55460;BME280;41326;45.302;-122.946;2023-05-22T02:20:44;101719.66;;;18.04;56.24
55460;BME280;41326;45.302;-122.946;2023-05-22T02:23:13;101718.54;;;18.07;56.45
55460;BME280;41326;45.302;-122.946;2023-05-22T02:25:43;101720.99;;;18.10;56.60
55460;BME280;41326;45.302;-122.946;2023-05-22T02:28:14;101728.22;;;18.11;56.41
55460;BME280;41326;45.302;-122.946;2023-05-22T02:30:44;101730.79;;;18.09;56.35
55460;BME280;41326;45.302;-122.946;2023-05-22T02:33:16;101734.30;;;18.12;56.06
55460;BME280;41326;45.302;-122.946;2023-05-22T02:35:45;101735.01;;;18.14;55.80
55460;BME280;41326;45.302;-122.946;2023-05-22T02:38:16;101734.26;;;18.20;55.41
55460;BME280;41326;45.302;-122.946;2023-05-22T02:40:46;101738.16;;;18.16;55.41
55460;BME280;41326;45.302;-122.946;2023-05-22T02:43:16;101742.53;;;18.18;55.19
55460;BME280;41326;45.302;-122.946;2023-05-22T02:45:47;101745.87;;;18.19;55.02
55460;BME280;41326;45.302;-122.946;2023-05-22T02:48:17;101744.28;;;18.18;54.89
55460;BME280;41326;45.302;-122.946;2023-05-22T02:50:48;101744.53;;;18.24;54.66
55460;BME280;41326;45.302;-122.946;2023-05-22T02:53:18;101747.44;;;18.28;54.47
55460;BME280;41326;45.302;-122.946;2023-05-22T02:55:48;101743.49;;;18.29;54.37
55460;BME280;41326;45.302;-122.946;2023-05-22T02:58:18;101744.49;;;18.28;54.37
55460;BME280;41326;45.302;-122.946;2023-05-22T03:00:49;101743.54;;;18.27;54.34
55460;BME280;41326;45.302;-122.946;2023-05-22T03:03:19;101747.16;;;18.29;54.21
55460;BME280;41326;45.302;-122.946;2023-05-22T03:05:49;101749.02;;;18.25;54.37
55460;BME280;41326;45.302;-122.946;2023-05-22T03:08:19;101751.44;;;18.25;54.39
55460;BME280;41326;45.302;-122.946;2023-05-22T03:10:49;101753.76;;;18.28;54.24
55460;BME280;41326;45.302;-122.946;2023-05-22T03:13:20;101751.47;;;18.29;54.08
55460;BME280;41326;45.302;-122.946;2023-05-22T03:15:50;101757.22;;;18.35;53.71
55460;BME280;41326;45.302;-122.946;2023-05-22T03:18:21;101758.73;;;18.34;53.53
55460;BME280;41326;45.302;-122.946;2023-05-22T03:20:53;101757.94;;;18.36;53.29
55460;BME280;41326;45.302;-122.946;2023-05-22T03:23:22;101757.90;;;18.33;53.26
55460;BME280;41326;45.302;-122.946;2023-05-22T03:25:52;101760.87;;;18.33;53.17
55460;BME280;41326;45.302;-122.946;2023-05-22T03:28:22;101763.75;;;18.35;52.98
55460;BME280;41326;45.302;-122.946;2023-05-22T03:30:52;101764.28;;;18.37;52.75
55460;BME280;41326;45.302;-122.946;2023-05-22T03:33:23;101767.13;;;18.34;52.76
55460;BME280;41326;45.302;-122.946;2023-05-22T03:35:53;101765.76;;;18.27;52.05
55460;BME280;41326;45.302;-122.946;2023-05-22T03:38:23;101768.63;;;18.42;47.97
55460;BME280;41326;45.302;-122.946;2023-05-22T03:40:54;101768.44;;;18.37;49.30
55460;BME280;41326;45.302;-122.946;2023-05-22T03:43:24;101770.12;;;18.20;50.66
55460;BME280;41326;45.302;-122.946;2023-05-22T03:45:54;101771.87;;;18.27;48.78
55460;BME280;41326;45.302;-122.946;2023-05-22T03:48:25;101773.17;;;18.12;49.82
55460;BME280;41326;45.302;-122.946;2023-05-22T03:50:55;101775.65;;;18.12;47.56
55460;BME280;41326;45.302;-122.946;2023-05-22T03:53:25;101779.64;;;18.09;47.25
55460;BME280;41326;45.302;-122.946;2023-05-22T03:55:56;101778.27;;;18.09;47.67
55460;BME280;41326;45.302;-122.946;2023-05-22T03:58:26;101784.91;;;18.00;47.55
55460;BME280;41326;45.302;-122.946;2023-05-22T04:00:56;101784.75;;;17.84;46.71
55460;BME280;41326;45.302;-122.946;2023-05-22T04:03:27;101783.01;;;17.77;48.31
55460;BME280;41326;45.302;-122.946;2023-05-22T04:05:57;101785.81;;;17.76;48.05
55460;BME280;41326;45.302;-122.946;2023-05-22T04:08:27;101784.24;;;17.67;48.33
55460;BME280;41326;45.302;-122.946;2023-05-22T04:10:58;101791.79;;;17.66;48.95
55460;BME280;41326;45.302;-122.946;2023-05-22T04:13:28;101796.54;;;17.62;49.03
55460;BME280;41326;45.302;-122.946;2023-05-22T04:15:59;101806.56;;;17.58;50.43
55460;BME280;41326;45.302;-122.946;2023-05-22T04:18:29;101812.32;;;17.58;50.84
55460;BME280;41326;45.302;-122.946;2023-05-22T04:20:59;101814.30;;;17.60;50.84
55460;BME280;41326;45.302;-122.946;2023-05-22T04:23:30;101815.88;;;17.58;51.04
55460;BME280;41326;45.302;-122.946;2023-05-22T04:26:00;101816.89;;;17.60;51.12
55460;BME280;41326;45.302;-122.946;2023-05-22T04:28:30;101817.04;;;17.66;50.75
55460;BME280;41326;45.302;-122.946;2023-05-22T04:31:01;101820.93;;;17.58;51.62
55460;BME280;41326;45.302;-122.946;2023-05-22T04:33:32;101821.67;;;17.69;51.53
55460;BME280;41326;45.302;-122.946;2023-05-22T04:36:02;101826.90;;;17.70;51.64
55460;BME280;41326;45.302;-122.946;2023-05-22T04:38:32;101830.02;;;17.77;51.73
55460;BME280;41326;45.302;-122.946;2023-05-22T04:41:02;101834.05;;;17.73;52.18
55460;BME280;41326;45.302;-122.946;2023-05-22T04:43:32;101834.60;;;17.78;51.83
55460;BME280;41326;45.302;-122.946;2023-05-22T04:46:03;101838.58;;;17.74;52.32
55460;BME280;41326;45.302;-122.946;2023-05-22T04:48:33;101843.55;;;17.76;52.30
55460;BME280;41326;45.302;-122.946;2023-05-22T04:51:04;101847.57;;;17.72;52.60
55460;BME280;41326;45.302;-122.946;2023-05-22T04:53:34;101852.20;;;17.73;52.74
55460;BME280;41326;45.302;-122.946;2023-05-22T04:56:05;101855.94;;;17.84;52.26
55460;BME280;41326;45.302;-122.946;2023-05-22T04:58:35;101852.29;;;17.73;52.88
55460;BME280;41326;45.302;-122.946;2023-05-22T05:01:05;101853.43;;;17.82;52.43
55460;BME280;41326;45.302;-122.946;2023-05-22T05:03:36;101854.81;;;17.76;52.94
55460;BME280;41326;45.302;-122.946;2023-05-22T05:06:06;101856.76;;;17.70;53.35
55460;BME280;41326;45.302;-122.946;2023-05-22T05:08:36;101864.46;;;17.68;53.77
55460;BME280;41326;45.302;-122.946;2023-05-22T05:11:06;101871.60;;;17.70;53.88
55460;BME280;41326;45.302;-122.946;2023-05-22T05:13:36;101875.52;;;17.73;53.98
55460;BME280;41326;45.302;-122.946;2023-05-22T05:16:06;101874.60;;;17.73;54.14
55460;BME280;41326;45.302;-122.946;2023-05-22T05:18:37;101870.22;;;17.72;54.26
55460;BME280;41326;45.302;-122.946;2023-05-22T05:21:07;101870.04;;;17.78;54.27
55460;BME280;41326;45.302;-122.946;2023-05-22T05:23:37;101866.39;;;17.82;54.30
55460;BME280;41326;45.302;-122.946;2023-05-22T05:26:07;101875.01;;;17.79;54.61
55460;BME280;41326;45.302;-122.946;2023-05-22T05:28:38;101875.70;;;17.82;54.66
55460;BME280;41326;45.302;-122.946;2023-05-22T05:31:08;101878.34;;;17.84;54.72
55460;BME280;41326;45.302;-122.946;2023-05-22T05:33:38;101877.99;;;17.85;54.81
55460;BME280;41326;45.302;-122.946;2023-05-22T05:36:09;101874.94;;;17.81;54.97
55460;BME280;41326;45.302;-122.946;2023-05-22T05:38:39;101871.71;;;17.81;55.02
55460;BME280;41326;45.302;-122.946;2023-05-22T05:41:09;101873.28;;;17.83;55.09
55460;BME280;41326;45.302;-122.946;2023-05-22T05:43:39;101874.15;;;17.78;55.35
55460;BME280;41326;45.302;-122.946;2023-05-22T05:46:09;101873.59;;;17.80;55.43
55460;BME280;41326;45.302;-122.946;2023-05-22T05:48:40;101876.97;;;17.82;55.42
55460;BME280;41326;45.302;-122.946;2023-05-22T05:51:10;101878.07;;;17.85;55.39
55460;BME280;41326;45.302;-122.946;2023-05-22T05:53:40;101881.07;;;17.84;55.50
55460;BME280;41326;45.302;-122.946;2023-05-22T05:56:10;101881.22;;;17.88;55.38
55460;BME280;41326;45.302;-122.946;2023-05-22T05:58:41;101879.04;;;17.86;55.47
55460;BME280;41326;45.302;-122.946;2023-05-22T06:01:11;101878.05;;;17.85;55.56
55460;BME280;41326;45.302;-122.946;2023-05-22T06:03:41;101876.75;;;17.87;55.60
55460;BME280;41326;45.302;-122.946;2023-05-22T06:06:11;101880.38;;;17.87;55.69
55460;BME280;41326;45.302;-122.946;2023-05-22T06:08:41;101878.17;;;17.87;55.69
55460;BME280;41326;45.302;-122.946;2023-05-22T06:11:12;101880.67;;;17.86;55.77
55460;BME280;41326;45.302;-122.946;2023-05-22T06:13:42;101882.12;;;17.83;55.94
55460;BME280;41326;45.302;-122.946;2023-05-22T06:16:12;101881.11;;;17.87;55.81
55460;BME280;41326;45.302;-122.946;2023-05-22T06:18:43;101878.54;;;17.82;55.93
55460;BME280;41326;45.302;-122.946;2023-05-22T06:21:13;101878.53;;;17.87;55.87
55460;BME280;41326;45.302;-122.946;2023-05-22T06:23:44;101878.47;;;17.84;56.00
55460;BME280;41326;45.302;-122.946;2023-05-22T06:26:14;101878.80;;;17.84;56.05
55460;BME280;41326;45.302;-122.946;2023-05-22T06:28:44;101878.40;;;17.84;56.05
55460;BME280;41326;45.302;-122.946;2023-05-22T06:31:15;101883.05;;;17.79;56.27
55460;BME280;41326;45.302;-122.946;2023-05-22T06:33:45;101884.69;;;17.82;56.17
55460;BME280;41326;45.302;-122.946;2023-05-22T06:36:16;101887.27;;;17.84;56.09
55460;BME280;41326;45.302;-122.946;2023-05-22T06:38:47;101885.79;;;17.83;56.10
55460;BME280;41326;45.302;-122.946;2023-05-22T06:41:17;101887.09;;;17.85;56.06
55460;BME280;41326;45.302;-122.946;2023-05-22T06:43:47;101888.42;;;17.87;56.01
55460;BME280;41326;45.302;-122.946;2023-05-22T06:46:18;101889.24;;;17.86;56.09
55460;BME280;41326;45.302;-122.946;2023-05-22T06:48:48;101891.66;;;17.85;56.10
55460;BME280;41326;45.302;-122.946;2023-05-22T06:51:19;101894.92;;;17.86;56.12
55460;BME280;41326;45.302;-122.946;2023-05-22T06:53:49;101896.31;;;17.90;55.99
55460;BME280;41326;45.302;-122.946;2023-05-22T06:56:19;101899.23;;;17.88;56.04
55460;BME280;41326;45.302;-122.946;2023-05-22T06:58:49;101899.30;;;17.83;56.22
55460;BME280;41326;45.302;-122.946;2023-05-22T07:01:20;101901.10;;;17.82;56.24
55460;BME280;41326;45.302;-122.946;2023-05-22T07:03:50;101902.35;;;17.82;56.29
55460;BME280;41326;45.302;-122.946;2023-05-22T07:06:22;101901.77;;;17.83;56.29
55460;BME280;41326;45.302;-122.946;2023-05-22T07:08:51;101902.23;;;17.83;56.30
55460;BME280;41326;45.302;-122.946;2023-05-22T07:11:22;101900.97;;;17.86;56.20
55460;BME280;41326;45.302;-122.946;2023-05-22T07:13:52;101905.34;;;17.81;56.35
55460;BME280;41326;45.302;-122.946;2023-05-22T07:16:24;101908.30;;;17.81;56.33
55460;BME280;41326;45.302;-122.946;2023-05-22T07:18:53;101908.50;;;17.84;56.24
55460;BME280;41326;45.302;-122.946;2023-05-22T07:21:23;101911.03;;;17.85;56.23
55460;BME280;41326;45.302;-122.946;2023-05-22T07:23:53;101912.27;;;17.83;56.36
55460;BME280;41326;45.302;-122.946;2023-05-22T07:26:23;101911.54;;;17.80;56.45
55460;BME280;41326;45.302;-122.946;2023-05-22T07:28:54;101908.89;;;17.78;56.54
55460;BME280;41326;45.302;-122.946;2023-05-22T07:31:23;101906.23;;;17.78;56.54
55460;BME280;41326;45.302;-122.946;2023-05-22T07:33:54;101907.08;;;17.75;56.66
55460;BME280;41326;45.302;-122.946;2023-05-22T07:36:25;101902.29;;;17.74;56.69
55460;BME280;41326;45.302;-122.946;2023-05-22T07:38:55;101905.22;;;17.79;56.55
55460;BME280;41326;45.302;-122.946;2023-05-22T07:41:25;101903.31;;;17.77;56.66
55460;BME280;41326;45.302;-122.946;2023-05-22T07:43:55;101903.19;;;17.72;56.82
55460;BME280;41326;45.302;-122.946;2023-05-22T07:46:26;101903.35;;;17.76;56.72
55460;BME280;41326;45.302;-122.946;2023-05-22T07:48:57;101903.71;;;17.72;56.87
55460;BME280;41326;45.302;-122.946;2023-05-22T07:51:27;101900.04;;;17.73;56.84
55460;BME280;41326;45.302;-122.946;2023-05-22T07:53:58;101898.02;;;17.69;56.95
55460;BME280;41326;45.302;-122.946;2023-05-22T07:56:28;101897.32;;;17.72;56.84
55460;BME280;41326;45.302;-122.946;2023-05-22T07:58:58;101897.50;;;17.70;56.92
55460;BME280;41326;45.302;-122.946;2023-05-22T08:02:37;101896.68;;;17.72;56.88
55460;BME280;41326;45.302;-122.946;2023-05-22T08:05:07;101899.95;;;17.69;56.97
55460;BME280;41326;45.302;-122.946;2023-05-22T08:07:37;101903.04;;;17.70;56.95
55460;BME280;41326;45.302;-122.946;2023-05-22T08:10:13;101903.93;;;17.68;57.02
55460;BME280;41326;45.302;-122.946;2023-05-22T08:12:37;101899.71;;;17.71;56.92
55460;BME280;41326;45.302;-122.946;2023-05-22T08:15:07;101902.12;;;17.67;57.02
55460;BME280;41326;45.302;-122.946;2023-05-22T08:17:38;101900.54;;;17.70;56.92
55460;BME280;41326;45.302;-122.946;2023-05-22T08:20:09;101900.67;;;17.69;56.92
55460;BME280;41326;45.302;-122.946;2023-05-22T08:22:38;101901.38;;;17.70;56.92
55460;BME280;41326;45.302;-122.946;2023-05-22T08:25:09;101900.76;;;17.68;57.01
55460;BME280;41326;45.302;-122.946;2023-05-22T08:27:39;101907.43;;;17.65;57.08
55460;BME280;41326;45.302;-122.946;2023-05-22T08:30:10;101907.71;;;17.68;56.97
55460;BME280;41326;45.302;-122.946;2023-05-22T08:32:40;101904.42;;;17.68;57.00
55460;BME280;41326;45.302;-122.946;2023-05-22T08:35:11;101902.32;;;17.70;56.93
55460;BME280;41326;45.302;-122.946;2023-05-22T08:37:41;101901.45;;;17.63;57.11
55460;BME280;41326;45.302;-122.946;2023-05-22T08:40:16;101905.06;;;17.63;57.10
55460;BME280;41326;45.302;-122.946;2023-05-22T08:42:42;101902.70;;;17.62;57.14
55460;BME280;41326;45.302;-122.946;2023-05-22T08:45:12;101900.44;;;17.60;57.25
55460;BME280;41326;45.302;-122.946;2023-05-22T08:47:44;101903.80;;;17.64;57.14
55460;BME280;41326;45.302;-122.946;2023-05-22T08:50:14;101902.17;;;17.61;57.22
55460;BME280;41326;45.302;-122.946;2023-05-22T08:52:49;101903.97;;;17.61;57.23
55460;BME280;41326;45.302;-122.946;2023-05-22T08:55:15;101905.01;;;17.56;57.38
55460;BME280;41326;45.302;-122.946;2023-05-22T08:57:45;101905.24;;;17.59;57.26
55460;BME280;41326;45.302;-122.946;2023-05-22T09:00:15;101904.62;;;17.60;57.23
55460;BME280;41326;45.302;-122.946;2023-05-22T09:02:45;101908.48;;;17.59;57.24
55460;BME280;41326;45.302;-122.946;2023-05-22T09:05:16;101906.64;;;17.60;57.22
55460;BME280;41326;45.302;-122.946;2023-05-22T09:07:46;101907.17;;;17.58;57.29
55460;BME280;41326;45.302;-122.946;2023-05-22T09:10:16;101905.36;;;17.63;57.12
55460;BME280;41326;45.302;-122.946;2023-05-22T09:15:17;101904.49;;;17.62;57.15
55460;BME280;41326;45.302;-122.946;2023-05-22T09:17:46;101899.80;;;17.64;57.05
55460;BME280;41326;45.302;-122.946;2023-05-22T09:20:17;101899.18;;;17.61;57.13
55460;BME280;41326;45.302;-122.946;2023-05-22T09:22:47;101895.55;;;17.63;57.07
55460;BME280;41326;45.302;-122.946;2023-05-22T09:25:22;101895.80;;;17.62;57.07
55460;BME280;41326;45.302;-122.946;2023-05-22T09:27:49;101899.30;;;17.61;57.16
55460;BME280;41326;45.302;-122.946;2023-05-22T09:30:21;101901.65;;;17.58;57.29
55460;BME280;41326;45.302;-122.946;2023-05-22T09:32:48;101905.08;;;17.58;57.30
55460;BME280;41326;45.302;-122.946;2023-05-22T09:35:19;101910.11;;;17.59;57.24
55460;BME280;41326;45.302;-122.946;2023-05-22T09:37:49;101910.89;;;17.61;57.14
55460;BME280;41326;45.302;-122.946;2023-05-22T09:40:20;101910.00;;;17.56;57.33
55460;BME280;41326;45.302;-122.946;2023-05-22T09:42:51;101905.64;;;17.54;57.42
55460;BME280;41326;45.302;-122.946;2023-05-22T09:45:24;101900.85;;;17.51;57.53
55460;BME280;41326;45.302;-122.946;2023-05-22T09:47:53;101894.45;;;17.55;57.41
55460;BME280;41326;45.302;-122.946;2023-05-22T09:50:22;101890.78;;;17.58;57.33
55460;BME280;41326;45.302;-122.946;2023-05-22T09:52:54;101892.21;;;17.52;57.52
55460;BME280;41326;45.302;-122.946;2023-05-22T09:55:24;101890.16;;;17.54;57.46
55460;BME280;41326;45.302;-122.946;2023-05-22T09:57:56;101886.47;;;17.57;57.33
55460;BME280;41326;45.302;-122.946;2023-05-22T10:00:24;101886.15;;;17.55;57.40
55460;BME280;41326;45.302;-122.946;2023-05-22T10:02:56;101885.50;;;17.51;57.53
55460;BME280;41326;45.302;-122.946;2023-05-22T10:05:26;101886.43;;;17.48;57.66
55460;BME280;41326;45.302;-122.946;2023-05-22T10:07:55;101885.63;;;17.49;57.62
55460;BME280;41326;45.302;-122.946;2023-05-22T10:10:26;101887.72;;;17.47;57.75
55460;BME280;41326;45.302;-122.946;2023-05-22T10:12:56;101885.50;;;17.47;57.75
55460;BME280;41326;45.302;-122.946;2023-05-22T10:15:26;101885.95;;;17.52;57.55
55460;BME280;41326;45.302;-122.946;2023-05-22T10:17:56;101884.07;;;17.50;57.64
55460;BME280;41326;45.302;-122.946;2023-05-22T10:20:27;101888.03;;;17.47;57.69
55460;BME280;41326;45.302;-122.946;2023-05-22T10:22:56;101886.41;;;17.45;57.79
55460;BME280;41326;45.302;-122.946;2023-05-22T10:25:27;101886.10;;;17.47;57.75
55460;BME280;41326;45.302;-122.946;2023-05-22T10:27:58;101887.66;;;17.46;57.78
55460;BME280;41326;45.302;-122.946;2023-05-22T10:30:35;101891.70;;;17.45;57.84
55460;BME280;41326;45.302;-122.946;2023-05-22T10:33:03;101894.47;;;17.42;57.96
55460;BME280;41326;45.302;-122.946;2023-05-22T10:35:34;101894.53;;;17.45;57.84
55460;BME280;41326;45.302;-122.946;2023-05-22T10:38:03;101897.83;;;17.44;57.86
55460;BME280;41326;45.302;-122.946;2023-05-22T10:40:32;101897.67;;;17.43;57.88
55460;BME280;41326;45.302;-122.946;2023-05-22T10:43:04;101898.79;;;17.43;57.89
55460;BME280;41326;45.302;-122.946;2023-05-22T10:45:32;101900.20;;;17.43;57.92
55460;BME280;41326;45.302;-122.946;2023-05-22T10:48:07;101898.60;;;17.43;57.92
55460;BME280;41326;45.302;-122.946;2023-05-22T10:50:31;101895.23;;;17.44;57.90
55460;BME280;41326;45.302;-122.946;2023-05-22T10:55:32;101892.57;;;17.40;58.06
55460;BME280;41326;45.302;-122.946;2023-05-22T11:00:34;101887.98;;;17.36;58.21
55460;BME280;41326;45.302;-122.946;2023-05-22T11:03:09;101885.51;;;17.36;58.17
55460;BME280;41326;45.302;-122.946;2023-05-22T11:05:38;101886.66;;;17.38;58.14
55460;BME280;41326;45.302;-122.946;2023-05-22T11:08:09;101885.90;;;17.40;58.08
55460;BME280;41326;45.302;-122.946;2023-05-22T11:13:10;101887.66;;;17.39;58.10
55460;BME280;41326;45.302;-122.946;2023-05-22T11:15:35;101891.93;;;17.37;58.16
55460;BME280;41326;45.302;-122.946;2023-05-22T11:18:10;101892.72;;;17.37;58.16
55460;BME280;41326;45.302;-122.946;2023-05-22T11:20:40;101893.81;;;17.38;58.10
55460;BME280;41326;45.302;-122.946;2023-05-22T11:23:09;101891.48;;;17.37;58.16
55460;BME280;41326;45.302;-122.946;2023-05-22T11:25:38;101892.28;;;17.38;58.13
55460;BME280;41326;45.302;-122.946;2023-05-22T11:28:08;101888.90;;;17.39;58.10
55460;BME280;41326;45.302;-122.946;2023-05-22T11:30:38;101890.65;;;17.36;58.19
55460;BME280;41326;45.302;-122.946;2023-05-22T11:33:07;101889.98;;;17.37;58.16
55460;BME280;41326;45.302;-122.946;2023-05-22T11:35:37;101889.72;;;17.37;58.14
55460;BME280;41326;45.302;-122.946;2023-05-22T11:38:09;101887.30;;;17.39;58.05
55460;BME280;41326;45.302;-122.946;2023-05-22T11:40:39;101885.86;;;17.38;58.05
55460;BME280;41326;45.302;-122.946;2023-05-22T11:43:09;101885.36;;;17.37;58.07
55460;BME280;41326;45.302;-122.946;2023-05-22T11:45:41;101882.91;;;17.39;58.03
55460;BME280;41326;45.302;-122.946;2023-05-22T11:48:10;101879.06;;;17.39;58.00
55460;BME280;41326;45.302;-122.946;2023-05-22T11:50:42;101879.34;;;17.38;58.05
55460;BME280;41326;45.302;-122.946;2023-05-22T11:53:10;101876.60;;;17.35;58.16
55460;BME280;41326;45.302;-122.946;2023-05-22T11:55:41;101877.65;;;17.35;58.10
55460;BME280;41326;45.302;-122.946;2023-05-22T11:58:11;101875.89;;;17.33;58.16
55460;BME280;41326;45.302;-122.946;2023-05-22T12:00:42;101872.22;;;17.32;58.18
55460;BME280;41326;45.302;-122.946;2023-05-22T12:03:11;101875.73;;;17.33;58.14
55460;BME280;41326;45.302;-122.946;2023-05-22T12:05:44;101876.35;;;17.32;58.17
55460;BME280;41326;45.302;-122.946;2023-05-22T12:08:12;101874.75;;;17.31;58.22
55460;BME280;41326;45.302;-122.946;2023-05-22T12:10:45;101876.06;;;17.28;58.33
55460;BME280;41326;45.302;-122.946;2023-05-22T12:13:13;101876.02;;;17.30;58.25
55460;BME280;41326;45.302;-122.946;2023-05-22T12:15:44;101875.59;;;17.30;58.25
55460;BME280;41326;45.302;-122.946;2023-05-22T12:18:16;101873.20;;;17.29;58.26
55460;BME280;41326;45.302;-122.946;2023-05-22T12:20:47;101873.94;;;17.29;58.24
55460;BME280;41326;45.302;-122.946;2023-05-22T12:23:20;101881.72;;;17.25;58.38
55460;BME280;41326;45.302;-122.946;2023-05-22T12:25:45;101879.73;;;17.24;58.43
55460;BME280;41326;45.302;-122.946;2023-05-22T12:28:15;101880.25;;;17.25;58.39
55460;BME280;41326;45.302;-122.946;2023-05-22T12:30:46;101879.51;;;17.21;58.56
55460;BME280;41326;45.302;-122.946;2023-05-22T12:33:19;101878.75;;;17.23;58.48
55460;BME280;41326;45.302;-122.946;2023-05-22T12:35:49;101875.03;;;17.24;58.39
55460;BME280;41326;45.302;-122.946;2023-05-22T12:38:19;101873.23;;;17.24;58.38
55460;BME280;41326;45.302;-122.946;2023-05-22T12:40:49;101873.84;;;17.24;58.35
55460;BME280;41326;45.302;-122.946;2023-05-22T12:43:17;101872.66;;;17.22;58.43
55460;BME280;41326;45.302;-122.946;2023-05-22T12:45:48;101870.84;;;17.25;58.34
55460;BME280;41326;45.302;-122.946;2023-05-22T12:48:18;101871.94;;;17.26;58.32
55460;BME280;41326;45.302;-122.946;2023-05-22T12:50:49;101869.76;;;17.23;58.43
55460;BME280;41326;45.302;-122.946;2023-05-22T12:53:19;101866.83;;;17.19;58.57